New Philadelphia, OH

5:57 AM EST on March 05, 2015 (GMT -0500)
Steele Hill | Change Station
CLOSE
Current Station
Personal Weather Station
Location: New Philadelphia, OH
Elevation: 942 ft
Nearby Weather Stations

Elev 942 ft 40.48 °N, 81.48 °W | Updated 2 seconds ago

Overcast
Overcast
18.3 °F
Feels Like 18 °F
N
2.0
Wind Variable Wind from North
Gusts 3.0 mph

Today
High -- | Low -- °F
--% Chance of Precip.
Yesterday
High -- | Low -- °F
Precip. -- in
6:53 AM 6:21 PM
Full, 100% visible
Pressure 30.26 in
Visibility 7.0 miles
Clouds Overcast 3700 ft
Windchill 18 °F
Dew Point 11 °F
Humidity 73%
Rainfall in
Snow Depth Not available.
UV 0 out of 12
Pollen .50 out of 12
Air Quality Not available.
Flu Activity Not available.
METAR KPHD 050953Z AUTO 34006KT 7SM OVC037 M07/M14 A3022 RMK AO2 SNE31 SLP246 P0000 T10671144

More Conditions Fewer Conditions

Pressure 30.26 in
Visibility 7.0 miles
Clouds Overcast 3700 ft
Windchill 18 °F
Dew Point 11 °F
Humidity 73%
Rainfall in
Snow Depth Not available.
UV 0 out of 12
Pollen .50 out of 12
Air Quality Not available.
Flu Activity Not available.
METAR KPHD 050953Z AUTO 34006KT 7SM OVC037 M07/M14 A3022 RMK AO2 SNE31 SLP246 P0000 T10671144

More Conditions Fewer Conditions

10-Day Weather Forecast

Almanac

Astronomy

Mar. 05, 2015 Rise Set
Actual Time
Civil Twilight
Nautical Twilight
Astronomical Twilight
Moon
Length of Visible Light
Length of Day
Tomorrow will be .
, % of the Moon is Illuminated

Today's Extremes

State Highs State Lows

Community

WunderPhotos

Upload Photos

1,802,714 photos uploaded!

WunderBlogs® & News

Nearby

Air Quality

  Air Quality AQ Index Pollutant
Not available.

Snow Depth

Station Depth Elevation

Earthquake Activity

City Distance Mag. Time & Date
Minimum magnitude displayed is 2.5.

Coastal Water Temperatures

Place Temperature

Nearby Weather Stations